createdAt,value
2022-08-17T00:00:39.729Z,20.42
2022-08-17T00:03:11.307Z,20.41
2022-08-17T00:05:45.597Z,20.43
2022-08-17T00:08:17.439Z,20.42
2022-08-17T00:10:47.001Z,20.39
2022-08-17T00:13:19.866Z,20.38
2022-08-17T00:15:48.632Z,20.36
2022-08-17T00:19:01.382Z,20.35
2022-08-17T00:21:10.235Z,20.32
2022-08-17T00:23:47.729Z,20.28
2022-08-17T00:26:34.891Z,20.27
2022-08-17T00:29:08.851Z,20.24
2022-08-17T00:31:37.888Z,20.24
2022-08-17T00:34:18.544Z,20.18
2022-08-17T00:36:47.609Z,20.18
2022-08-17T00:39:16.156Z,20.18
2022-08-17T00:42:34.539Z,20.14
2022-08-17T00:49:26.136Z,20.04
2022-08-17T00:52:06.082Z,20.05
2022-08-17T01:02:22.571Z,19.97
2022-08-17T02:10:18.262Z,19.45
2022-08-17T02:12:50.751Z,19.42
2022-08-17T02:19:25.690Z,19.37
2022-08-17T02:34:21.265Z,19.27
2022-08-17T02:37:17.285Z,19.25
2022-08-17T02:43:51.424Z,19.23
2022-08-17T02:46:20.414Z,19.17
2022-08-17T02:49:09.479Z,19.18
2022-08-17T02:51:40.807Z,19.17
2022-08-17T02:54:40.030Z,19.18
2022-08-17T03:04:21.205Z,19.15
2022-08-17T03:06:49.880Z,19.17
2022-08-17T03:09:36.912Z,19.17
2022-08-17T03:16:00.794Z,19.20
2022-08-17T03:29:22.086Z,19.25
2022-08-17T03:32:01.509Z,19.27
2022-08-17T03:36:08.115Z,19.28
2022-08-17T03:38:24.912Z,19.27
2022-08-17T03:40:56.970Z,19.27
2022-08-17T03:51:48.789Z,19.31
2022-08-17T03:52:16.828Z,19.34
2022-08-17T03:55:04.676Z,19.34
2022-08-17T03:57:33.370Z,19.38
2022-08-17T04:00:04.888Z,19.37
2022-08-17T04:02:42.376Z,19.39
2022-08-17T04:05:12.479Z,19.44
2022-08-17T04:11:44.589Z,19.52
2022-08-17T04:14:17.407Z,19.58
2022-08-17T04:16:46.174Z,19.65
2022-08-17T04:23:43.536Z,19.74
2022-08-17T04:26:52.676Z,19.83
2022-08-17T04:33:43.962Z,20.03
2022-08-17T04:36:15.292Z,20.13
2022-08-17T04:38:45.545Z,20.25
2022-08-17T04:45:18.007Z,20.58
2022-08-17T04:47:54.071Z,20.73
2022-08-17T04:50:22.665Z,20.82
2022-08-17T05:00:54.256Z,21.15
2022-08-17T05:10:48.571Z,21.55
2022-08-17T05:13:19.212Z,21.66
2022-08-17T05:19:47.580Z,22.31
2022-08-17T05:22:26.988Z,23.07
2022-08-17T05:25:10.396Z,23.79
2022-08-17T05:34:28.683Z,27.55
2022-08-17T05:36:57.306Z,28.24
2022-08-17T05:43:32.684Z,28.27
2022-08-17T05:46:33.172Z,27.84
2022-08-17T05:55:59.208Z,26.27
2022-08-17T05:58:58.780Z,25.82
2022-08-17T06:09:08.905Z,24.49
2022-08-17T06:11:45.469Z,24.28
2022-08-17T06:14:45.348Z,24.08
2022-08-17T06:18:05.488Z,23.94
2022-08-17T06:20:49.025Z,23.83
2022-08-17T06:23:40.641Z,23.80
2022-08-17T06:26:14.607Z,23.77
2022-08-17T06:28:51.185Z,23.76
2022-08-17T06:31:26.979Z,23.70
2022-08-17T06:33:57.974Z,23.73
2022-08-17T06:36:41.869Z,23.73
2022-08-17T06:39:31.777Z,23.82
2022-08-17T06:43:02.548Z,23.93
2022-08-17T06:45:10.678Z,24.03
2022-08-17T06:47:44.918Z,24.14
2022-08-17T06:50:20.052Z,24.21
2022-08-17T06:52:54.478Z,24.39
2022-08-17T06:55:32.190Z,24.54
2022-08-17T06:58:09.985Z,24.65
2022-08-17T07:00:47.924Z,24.76
2022-08-17T07:03:26.285Z,24.89
2022-08-17T07:05:59.189Z,24.99
2022-08-17T10:31:10.516Z,31.25
2022-08-17T10:34:08.845Z,31.64
2022-08-17T10:36:54.553Z,32.10
2022-08-17T10:43:34.180Z,33.13
2022-08-17T10:46:30.297Z,33.46
2022-08-17T10:49:28.047Z,33.78
2022-08-17T10:53:06.355Z,33.81
2022-08-17T10:56:28.746Z,33.68
2022-08-17T10:59:00.136Z,33.30
2022-08-17T11:02:14.862Z,32.99
2022-08-17T11:05:33.969Z,32.44
2022-08-17T11:08:31.704Z,32.12
2022-08-17T11:11:22.756Z,32.09
2022-08-17T11:14:08.619Z,32.26
2022-08-17T11:16:52.957Z,32.50
2022-08-17T11:20:05.484Z,32.81
2022-08-17T11:23:35.944Z,33.10
2022-08-17T11:26:35.348Z,33.33
2022-08-17T11:29:17.025Z,33.41
2022-08-17T11:32:27.581Z,33.60
2022-08-17T11:35:54.988Z,33.56
2022-08-17T11:38:45.875Z,33.39
2022-08-17T11:41:26.962Z,33.14
2022-08-17T11:48:33.823Z,33.14
2022-08-17T11:51:30.914Z,33.36
2022-08-17T11:54:34.408Z,33.54
2022-08-17T11:57:50.253Z,33.61
2022-08-17T12:01:10.090Z,33.71
2022-08-17T12:03:58.458Z,33.89
2022-08-17T12:10:12.095Z,34.08
2022-08-17T12:12:43.620Z,34.05
2022-08-17T12:15:19.392Z,34.05
2022-08-17T12:22:06.381Z,33.69
2022-08-17T12:22:13.626Z,33.89
2022-08-17T12:25:03.889Z,33.41
2022-08-17T12:28:04.765Z,33.06
2022-08-17T12:30:57.427Z,32.68
2022-08-17T12:33:28.637Z,32.45
2022-08-17T12:36:11.537Z,32.37
2022-08-17T12:38:41.646Z,32.37
2022-08-17T12:41:26.708Z,32.28
2022-08-17T12:44:01.728Z,32.31
2022-08-17T12:46:34.362Z,32.40
2022-08-17T12:49:16.664Z,32.42
2022-08-17T12:51:47.291Z,32.51
2022-08-17T12:54:31.542Z,32.55
2022-08-17T12:57:05.472Z,32.57
2022-08-17T12:59:34.343Z,32.64
2022-08-17T13:02:03.410Z,32.72
2022-08-17T13:04:32.132Z,32.79
2022-08-17T13:07:01.093Z,32.78
2022-08-17T13:09:40.259Z,32.87
2022-08-17T13:12:10.375Z,32.92
2022-08-17T13:14:45.968Z,32.98
2022-08-17T13:17:26.827Z,33.16
2022-08-17T13:19:55.626Z,33.26
2022-08-17T13:22:26.288Z,33.31
2022-08-17T13:24:57.875Z,33.24
2022-08-17T13:27:28.696Z,33.26
2022-08-17T13:30:00.383Z,33.29
2022-08-17T13:32:46.740Z,33.27
2022-08-17T13:35:50.071Z,33.30
2022-08-17T13:38:40.020Z,33.16
2022-08-17T13:41:28.707Z,32.92
2022-08-17T13:43:57.777Z,32.57
2022-08-17T13:46:30.937Z,32.20
2022-08-17T13:49:03.387Z,31.92
2022-08-17T13:51:35.560Z,31.52
2022-08-17T13:54:10.774Z,31.23
2022-08-17T13:57:00.773Z,30.94
2022-08-17T13:59:54.142Z,30.70
2022-08-17T14:02:28.456Z,30.45
2022-08-17T14:04:58.745Z,30.30
2022-08-17T14:07:33.095Z,30.17
2022-08-17T14:10:06.722Z,30.18
2022-08-17T14:12:38.079Z,30.25
2022-08-17T14:15:09.167Z,30.35
2022-08-17T14:17:39.185Z,30.47
2022-08-17T14:20:12.105Z,30.42
2022-08-17T14:22:48.913Z,30.30
2022-08-17T14:25:20.627Z,30.13
2022-08-17T14:27:52.996Z,30.00
2022-08-17T14:30:25.906Z,29.89
2022-08-17T14:32:56.028Z,29.80
2022-08-17T14:35:27.466Z,29.80
2022-08-17T14:37:56.782Z,29.93
2022-08-17T14:40:26.540Z,30.03
2022-08-17T14:42:57.274Z,30.17
2022-08-17T14:45:32.102Z,30.25
2022-08-17T14:48:05.200Z,30.30
2022-08-17T14:50:35.290Z,30.30
2022-08-17T14:53:06.069Z,30.25
2022-08-17T14:55:39.093Z,30.18
2022-08-17T14:58:08.672Z,30.14
2022-08-17T15:00:38.938Z,30.08
2022-08-17T15:03:07.514Z,30.03
2022-08-17T15:05:38.219Z,29.95
2022-08-17T15:08:07.818Z,29.89
2022-08-17T15:10:38.597Z,29.80
2022-08-17T15:13:16.557Z,29.71
2022-08-17T15:19:29.214Z,29.45
2022-08-17T15:22:15.884Z,29.38
2022-08-17T15:24:47.431Z,29.28
2022-08-17T15:31:08.486Z,29.10
2022-08-17T15:33:37.160Z,28.99
2022-08-17T15:44:20.667Z,28.63
2022-08-17T15:46:49.562Z,28.54
2022-08-17T15:49:27.935Z,28.46
2022-08-17T15:51:57.790Z,28.41
2022-08-17T15:54:31.626Z,28.30
2022-08-17T15:57:06.999Z,28.24
2022-08-17T15:59:42.428Z,28.18
2022-08-17T16:03:45.451Z,28.11
2022-08-17T16:05:21.612Z,28.03
2022-08-17T16:07:59.879Z,27.93
2022-08-17T16:10:35.136Z,27.84
2022-08-17T16:13:17.648Z,27.77
2022-08-17T16:15:56.578Z,27.68
2022-08-17T16:18:31.241Z,27.59
2022-08-17T16:21:26.141Z,27.51
2022-08-17T16:24:38.704Z,27.45
2022-08-17T16:27:20.762Z,27.42
2022-08-17T16:29:55.532Z,27.40
2022-08-17T16:33:02.850Z,27.37
2022-08-17T16:35:50.684Z,27.32
2022-08-17T16:38:31.787Z,27.35
2022-08-17T16:41:00.586Z,27.32
2022-08-17T16:43:35.456Z,27.34
2022-08-17T16:46:15.405Z,27.28
2022-08-17T16:48:56.606Z,27.27
2022-08-17T16:51:25.705Z,27.22
2022-08-17T16:54:00.504Z,27.22
2022-08-17T16:56:41.316Z,27.21
2022-08-17T16:59:39.435Z,27.15
2022-08-17T17:02:37.094Z,27.09
2022-08-17T17:05:12.456Z,27.01
2022-08-17T17:08:00.371Z,26.99
2022-08-17T17:10:35.742Z,26.99
2022-08-17T17:13:12.289Z,26.93
2022-08-17T17:15:53.186Z,26.90
2022-08-17T17:18:27.004Z,26.82
2022-08-17T17:20:57.478Z,26.76
2022-08-17T17:23:53.967Z,26.70
2022-08-17T17:26:39.819Z,26.62
2022-08-17T17:29:48.228Z,26.55
2022-08-17T17:32:27.797Z,26.45
2022-08-17T17:35:04.279Z,26.42
2022-08-17T17:37:35.973Z,26.37
2022-08-17T17:40:12.908Z,26.28
2022-08-17T17:42:46.936Z,26.24
2022-08-17T17:45:21.330Z,26.17
2022-08-17T17:47:50.816Z,26.10
2022-08-17T17:50:35.591Z,26.03
2022-08-17T17:53:43.039Z,26.00
2022-08-17T17:56:44.658Z,25.90
2022-08-17T17:59:46.944Z,25.83
2022-08-17T18:06:38.619Z,25.68
2022-08-17T18:09:23.772Z,25.58
2022-08-17T18:12:38.138Z,25.49
2022-08-17T18:19:20.296Z,25.17
2022-08-17T18:22:47.347Z,25.07
2022-08-17T18:29:24.505Z,24.82
2022-08-17T18:50:53.731Z,24.24
2022-08-17T18:53:34.729Z,24.14
2022-08-17T19:01:08.580Z,23.92
